Harlow, United Kingdom

6:34 PM GMT on January 30, 2015 (GMT +0000)
Netteswell | Change Station
CLOSE
Current Station
Personal Weather Station
Location: Harlow,
Elevation: 240 ft
Nearby Weather Stations

Elev 240 ft 51.77 °N, 0.11 °E | Updated 4 minutes ago

Clear
Clear
37.6 °F
Feels Like 33 °F
N
5.7
Wind Variable Wind from North
Gusts 7.6 mph

Today
High -- | Low -- °F
--% Chance of Precip.
Yesterday
High -- | Low -- °F
Precip. -- in
7:42 AM 4:43 PM
Waxing Gibbous, 84% visible
Pressure 28.91 in
Visibility -9999.0 miles
Clouds
Windchill 33 °F
Dew Point 31 °F
Humidity 78%
Rainfall 0.25 in
Snow Depth Not available.
UV Not available.
Pollen Not available.
Air Quality Not available.
Flu Activity Not available.
METAR EGSS 301820Z 29006KT CAVOK 02/M00 Q0979

More Conditions Fewer Conditions

Pressure 28.91 in
Visibility -9999.0 miles
Clouds
Windchill 33 °F
Dew Point 31 °F
Humidity 78%
Rainfall 0.25 in
Snow Depth Not available.
UV Not available.
Pollen Not available.
Air Quality Not available.
Flu Activity Not available.
METAR EGSS 301820Z 29006KT CAVOK 02/M00 Q0979

More Conditions Fewer Conditions

10-Day Weather Forecast

Almanac

Astronomy

Jan. 30, 2015 Rise Set
Actual Time
Civil Twilight
Nautical Twilight
Astronomical Twilight
Moon
Length of Visible Light
Length of Day
Tomorrow will be .
, % of the Moon is Illuminated

Today's Extremes

Country Highs Country Lows

Community

WunderPhotos

Upload Photos

1,791,857 photos uploaded!

WunderBlogs® & News

Nearby

Air Quality

  Air Quality AQ Index Pollutant
Not available.

Snow Depth

Station Depth Elevation

Earthquake Activity

City Distance Mag. Time & Date
Minimum magnitude displayed is 2.5.

Coastal Water Temperatures

Place Temperature

Nearby Weather Stations